createdAt,value
2022-10-06T00:02:36.636Z,9.89
2022-10-06T00:05:38.993Z,9.85
2022-10-06T00:08:42.727Z,9.88
2022-10-06T00:11:44.908Z,9.84
2022-10-06T00:14:47.060Z,9.91
2022-10-06T00:17:49.819Z,9.91
2022-10-06T00:20:56.122Z,9.98
2022-10-06T00:23:58.583Z,9.99
2022-10-06T00:27:01.165Z,9.85
2022-10-06T00:30:08.824Z,9.77
2022-10-06T00:33:13.675Z,9.79
2022-10-06T00:36:16.239Z,9.72
2022-10-06T00:39:20.035Z,9.62
2022-10-06T00:42:32.298Z,9.66
2022-10-06T00:45:44.362Z,9.55
2022-10-06T00:48:49.496Z,9.45
2022-10-06T00:51:54.326Z,9.39
2022-10-06T00:54:59.035Z,9.45
2022-10-06T00:58:01.404Z,9.35
2022-10-06T01:01:04.189Z,9.18
2022-10-06T01:04:09.701Z,9.03
2022-10-06T01:07:12.143Z,9.01
2022-10-06T01:10:14.335Z,9.11
2022-10-06T01:13:17.769Z,9.13
2022-10-06T01:16:24.387Z,9.10
2022-10-06T01:19:48.098Z,9.05
2022-10-06T01:22:58.113Z,8.80
2022-10-06T01:26:02.411Z,8.83
2022-10-06T01:29:04.585Z,8.81
2022-10-06T01:32:06.998Z,8.77
2022-10-06T01:35:10.193Z,8.79
2022-10-06T01:38:12.363Z,8.71
2022-10-06T01:41:14.528Z,8.69
2022-10-06T01:44:16.756Z,8.59
2022-10-06T01:47:18.920Z,8.57
2022-10-06T01:50:21.141Z,8.56
2022-10-06T01:53:23.322Z,8.50
2022-10-06T01:56:26.043Z,8.47
2022-10-06T01:59:28.232Z,8.52
2022-10-06T02:02:31.625Z,8.33
2022-10-06T02:05:34.504Z,8.20
2022-10-06T02:08:36.662Z,8.09
2022-10-06T02:11:38.781Z,8.15
2022-10-06T02:14:40.950Z,8.13
2022-10-06T02:17:43.256Z,8.01
2022-10-06T02:20:45.407Z,7.74
2022-10-06T02:23:48.685Z,7.86
2022-10-06T02:26:50.857Z,7.83
2022-10-06T02:29:53.055Z,7.87
2022-10-06T02:32:55.914Z,7.81
2022-10-06T02:35:58.690Z,7.81
2022-10-06T02:39:00.852Z,7.76
2022-10-06T02:42:04.632Z,7.83
2022-10-06T02:45:07.593Z,7.82
2022-10-06T02:48:11.599Z,7.85
2022-10-06T02:51:15.898Z,7.87
2022-10-06T02:54:18.016Z,7.75
2022-10-06T02:57:20.149Z,7.61
2022-10-06T03:00:22.335Z,7.64
2022-10-06T03:03:24.466Z,7.58
2022-10-06T03:06:29.934Z,7.67
2022-10-06T03:09:32.106Z,7.68
2022-10-06T03:12:34.307Z,7.64
2022-10-06T03:15:36.479Z,7.66
2022-10-06T03:18:38.661Z,7.60
2022-10-06T03:21:42.906Z,7.56
2022-10-06T03:24:45.117Z,7.51
2022-10-06T03:27:47.439Z,7.47
2022-10-06T03:30:49.574Z,7.41
2022-10-06T03:33:52.962Z,7.38
2022-10-06T03:36:55.127Z,7.48
2022-10-06T03:39:57.304Z,7.50
2022-10-06T03:43:00.636Z,7.56
2022-10-06T03:46:04.117Z,7.62
2022-10-06T03:49:06.352Z,7.61
2022-10-06T03:52:08.496Z,7.64
2022-10-06T03:55:10.626Z,7.67
2022-10-06T03:58:16.934Z,7.66
2022-10-06T04:01:26.862Z,7.64
2022-10-06T04:04:29.142Z,7.67
2022-10-06T04:07:31.261Z,7.62
2022-10-06T04:10:33.456Z,7.55
2022-10-06T04:13:35.767Z,7.54
2022-10-06T04:16:43.169Z,7.57
2022-10-06T04:19:45.359Z,7.61
2022-10-06T04:22:47.496Z,7.57
2022-10-06T04:25:55.187Z,7.53
2022-10-06T04:28:58.186Z,7.54
2022-10-06T04:32:00.950Z,7.48
2022-10-06T04:35:03.303Z,7.38
2022-10-06T04:38:05.455Z,7.46
2022-10-06T04:41:13.841Z,7.44
2022-10-06T04:44:16.011Z,7.32
2022-10-06T04:47:18.184Z,7.39
2022-10-06T04:50:20.339Z,7.36
2022-10-06T04:53:22.726Z,7.41
2022-10-06T04:56:27.267Z,7.29
2022-10-06T04:59:47.961Z,7.28
2022-10-06T05:02:50.133Z,7.24
2022-10-06T05:05:52.258Z,7.19
2022-10-06T05:08:56.527Z,7.17
2022-10-06T05:11:58.913Z,7.28
2022-10-06T05:15:01.199Z,7.46
2022-10-06T05:18:03.728Z,7.52
2022-10-06T05:21:15.083Z,7.46
2022-10-06T05:24:17.493Z,7.49
2022-10-06T05:27:20.766Z,7.61
2022-10-06T05:30:23.006Z,7.70
2022-10-06T05:33:26.632Z,7.80
2022-10-06T05:36:31.233Z,7.93
2022-10-06T05:39:33.382Z,8.05
2022-10-06T05:42:35.531Z,8.09
2022-10-06T05:45:37.809Z,8.16
2022-10-06T05:48:40.040Z,8.49
2022-10-06T05:51:42.210Z,8.79
2022-10-06T05:54:44.401Z,9.09
2022-10-06T05:57:46.564Z,9.21
2022-10-06T06:00:48.705Z,9.32
2022-10-06T06:03:55.992Z,9.29
2022-10-06T06:06:58.170Z,9.45
2022-10-06T06:10:00.401Z,9.61
2022-10-06T06:13:02.551Z,9.74
2022-10-06T06:16:06.246Z,9.91
2022-10-06T06:19:10.830Z,10.32
2022-10-06T06:22:13.033Z,10.53
2022-10-06T06:25:15.328Z,10.83
2022-10-06T06:28:17.935Z,10.80
2022-10-06T06:31:21.516Z,10.89
2022-10-06T06:34:25.612Z,11.07
2022-10-06T06:37:31.419Z,11.09
2022-10-06T06:40:34.327Z,11.39
2022-10-06T06:43:36.652Z,11.44
2022-10-06T06:46:40.181Z,11.56
2022-10-06T06:49:43.107Z,11.63
2022-10-06T06:52:45.293Z,11.69
2022-10-06T06:55:51.148Z,11.75
2022-10-06T06:58:53.521Z,11.86
2022-10-06T07:01:57.657Z,11.89
2022-10-06T07:04:59.870Z,11.93
2022-10-06T07:08:02.031Z,11.95
2022-10-06T07:11:34.545Z,11.90
2022-10-06T07:14:36.671Z,11.68
2022-10-06T07:17:57.343Z,11.66
2022-10-06T07:21:17.989Z,11.64
2022-10-06T07:24:40.246Z,11.65
2022-10-06T07:27:44.620Z,11.58
2022-10-06T07:30:46.788Z,11.65
2022-10-06T07:33:51.494Z,11.69
2022-10-06T07:36:54.298Z,12.03
2022-10-06T07:39:56.481Z,12.29
2022-10-06T07:42:59.594Z,12.13
2022-10-06T07:46:01.816Z,12.26
2022-10-06T07:49:03.992Z,12.45
2022-10-06T07:52:06.139Z,12.54
2022-10-06T07:55:08.516Z,12.45
2022-10-06T07:58:19.381Z,12.65
2022-10-06T08:01:21.659Z,12.93
2022-10-06T08:04:23.837Z,13.03
2022-10-06T08:07:26.514Z,13.39
2022-10-06T08:10:28.631Z,13.26
2022-10-06T08:13:32.267Z,13.71
2022-10-06T08:16:34.510Z,13.91
2022-10-06T08:19:36.714Z,14.05
2022-10-06T08:22:40.031Z,14.38
2022-10-06T08:25:50.348Z,14.47
2022-10-06T08:28:55.282Z,14.61
2022-10-06T08:31:59.501Z,14.95
2022-10-06T08:35:02.033Z,14.95
2022-10-06T08:38:04.253Z,15.27
2022-10-06T08:41:25.524Z,15.60
2022-10-06T08:44:35.667Z,15.81
2022-10-06T08:47:37.976Z,15.93
2022-10-06T08:50:53.749Z,15.97
2022-10-06T08:54:06.182Z,16.36
2022-10-06T08:57:19.851Z,16.55
2022-10-06T09:00:22.385Z,16.72
2022-10-06T09:03:28.401Z,16.88
2022-10-06T09:06:38.096Z,16.96
2022-10-06T09:10:06.907Z,16.95
2022-10-06T09:13:18.451Z,16.81
2022-10-06T09:16:37.178Z,17.06
2022-10-06T09:20:10.572Z,16.98
2022-10-06T09:23:16.833Z,17.09
2022-10-06T09:26:32.677Z,17.37
2022-10-06T09:29:34.853Z,17.49
2022-10-06T09:32:39.166Z,17.29
2022-10-06T09:36:06.189Z,17.54
2022-10-06T09:39:22.350Z,17.65
2022-10-06T09:42:29.967Z,17.76
2022-10-06T09:45:32.170Z,17.44
2022-10-06T09:48:34.347Z,17.45
2022-10-06T09:51:37.642Z,17.61
2022-10-06T09:54:41.943Z,17.70
2022-10-06T09:57:49.821Z,18.02
2022-10-06T10:01:12.454Z,17.81
2022-10-06T10:04:23.248Z,17.94
2022-10-06T10:07:27.545Z,17.96
2022-10-06T10:10:29.982Z,18.14
2022-10-06T10:13:42.305Z,17.98
2022-10-06T10:16:46.102Z,17.88
2022-10-06T10:19:53.202Z,17.92
2022-10-06T10:22:58.362Z,17.85
2022-10-06T10:26:19.395Z,17.75
2022-10-06T10:29:43.510Z,17.43
2022-10-06T10:32:48.673Z,17.57
2022-10-06T10:35:53.197Z,17.50
2022-10-06T10:38:55.478Z,17.48
2022-10-06T10:41:59.849Z,17.86
2022-10-06T10:45:05.123Z,17.93
2022-10-06T10:48:15.814Z,18.26
2022-10-06T10:51:29.289Z,17.89
2022-10-06T10:54:38.466Z,18.08
2022-10-06T10:57:41.335Z,18.50
2022-10-06T11:00:46.419Z,18.59
2022-10-06T11:03:56.720Z,18.90
2022-10-06T11:07:11.198Z,18.84
2022-10-06T11:10:13.830Z,18.99
2022-10-06T11:13:24.092Z,19.04
2022-10-06T11:16:52.489Z,19.36
2022-10-06T11:19:59.645Z,19.23
2022-10-06T11:23:19.463Z,19.13
2022-10-06T11:26:35.876Z,19.23
2022-10-06T11:30:07.003Z,19.36
2022-10-06T11:33:17.901Z,19.51
2022-10-06T11:36:52.782Z,19.58
2022-10-06T11:40:00.427Z,19.82
2022-10-06T11:43:12.869Z,19.85
2022-10-06T11:46:41.305Z,19.39
2022-10-06T11:49:51.385Z,18.98
2022-10-06T11:52:53.525Z,19.21
2022-10-06T11:56:18.172Z,19.24
2022-10-06T11:59:25.453Z,19.01
2022-10-06T12:02:30.705Z,18.98
2022-10-06T12:08:55.734Z,19.04
2022-10-06T12:12:00.876Z,19.17
2022-10-06T12:18:59.655Z,19.11
2022-10-06T12:22:18.102Z,19.11
2022-10-06T12:25:27.986Z,19.06
2022-10-06T12:28:44.692Z,18.98
2022-10-06T12:31:58.580Z,18.94
2022-10-06T12:35:01.397Z,19.00
2022-10-06T12:38:06.025Z,19.01
2022-10-06T12:41:14.619Z,18.94
2022-10-06T12:44:26.029Z,19.03
2022-10-06T12:47:39.464Z,19.11
2022-10-06T12:50:42.878Z,19.00
2022-10-06T12:53:50.867Z,18.97
2022-10-06T12:57:00.478Z,18.88
2022-10-06T13:00:02.818Z,19.01
2022-10-06T13:03:07.155Z,18.94
2022-10-06T13:06:09.546Z,19.06
2022-10-06T13:09:14.920Z,19.01
2022-10-06T13:12:31.455Z,19.20
2022-10-06T13:15:40.199Z,19.24
2022-10-06T13:18:42.462Z,19.40
2022-10-06T13:21:45.076Z,19.58
2022-10-06T13:24:47.334Z,19.56
2022-10-06T13:27:52.553Z,19.47
2022-10-06T13:31:03.287Z,19.57
2022-10-06T13:34:17.086Z,19.57
2022-10-06T13:37:19.755Z,19.57
2022-10-06T13:40:44.044Z,19.46
2022-10-06T13:44:11.654Z,19.48
2022-10-06T13:47:19.770Z,19.45
2022-10-06T13:50:21.982Z,19.34
2022-10-06T13:53:25.748Z,19.28
2022-10-06T13:56:32.787Z,19.29
2022-10-06T13:59:38.682Z,19.04
2022-10-06T14:02:42.401Z,19.08
2022-10-06T14:05:45.715Z,18.97
2022-10-06T14:08:56.939Z,18.86
2022-10-06T14:12:11.119Z,18.84
2022-10-06T14:15:20.950Z,18.95
2022-10-06T14:18:41.956Z,18.96
2022-10-06T14:21:45.753Z,18.94
2022-10-06T14:24:51.505Z,18.92
2022-10-06T14:27:54.734Z,18.90
2022-10-06T14:30:57.568Z,18.83
2022-10-06T14:34:00.724Z,18.74
2022-10-06T14:37:03.039Z,18.76
2022-10-06T14:40:10.151Z,18.72
2022-10-06T14:43:14.137Z,18.62
2022-10-06T14:46:16.382Z,18.51
2022-10-06T14:49:18.674Z,18.44
2022-10-06T14:52:22.344Z,18.25
2022-10-06T14:55:29.616Z,18.16
2022-10-06T14:58:33.072Z,18.04
2022-10-06T15:01:36.958Z,18.06
2022-10-06T15:04:39.119Z,18.08
2022-10-06T15:08:00.857Z,17.92
2022-10-06T15:11:08.918Z,17.90
2022-10-06T15:14:11.612Z,17.78
2022-10-06T15:17:13.792Z,17.66
2022-10-06T15:20:17.331Z,17.60
2022-10-06T15:23:19.640Z,17.52
2022-10-06T15:26:40.244Z,17.41
2022-10-06T15:29:42.547Z,17.27
2022-10-06T15:32:44.756Z,17.09
2022-10-06T15:36:08.837Z,17.01
2022-10-06T15:39:13.628Z,16.90
2022-10-06T15:42:18.693Z,16.75
2022-10-06T15:45:22.038Z,16.60
2022-10-06T15:48:24.198Z,16.63
2022-10-06T15:51:27.901Z,16.48
2022-10-06T15:54:33.772Z,16.26
2022-10-06T15:57:36.298Z,16.20
2022-10-06T16:00:38.459Z,16.23
2022-10-06T16:03:41.413Z,16.22
2022-10-06T16:06:49.198Z,15.93
2022-10-06T16:09:51.862Z,15.80
2022-10-06T16:12:54.088Z,15.86
2022-10-06T16:15:57.272Z,15.81
2022-10-06T16:18:59.797Z,15.81
2022-10-06T16:22:02.023Z,15.81
2022-10-06T16:25:04.430Z,15.70
2022-10-06T16:28:06.791Z,15.49
2022-10-06T16:31:09.038Z,15.33
2022-10-06T16:34:11.717Z,15.24
2022-10-06T16:37:13.861Z,15.11
2022-10-06T16:40:19.167Z,15.18
2022-10-06T16:43:21.334Z,15.21
2022-10-06T16:46:25.754Z,14.91
2022-10-06T16:49:28.350Z,14.97
2022-10-06T16:52:31.013Z,14.86
2022-10-06T16:55:33.162Z,14.83
2022-10-06T16:58:43.494Z,14.59
2022-10-06T17:01:46.221Z,14.83
2022-10-06T17:04:48.436Z,14.47
2022-10-06T17:07:51.974Z,14.36
2022-10-06T17:11:16.084Z,14.35
2022-10-06T17:14:19.517Z,14.33
2022-10-06T17:17:21.667Z,14.36
2022-10-06T17:20:23.903Z,14.43
2022-10-06T17:23:27.161Z,14.35
2022-10-06T17:26:33.937Z,14.27
2022-10-06T17:29:36.160Z,14.32
2022-10-06T17:32:38.624Z,14.23
2022-10-06T17:35:40.973Z,14.19
2022-10-06T17:38:49.093Z,14.26
2022-10-06T17:41:52.871Z,14.21
2022-10-06T17:44:55.183Z,14.16
2022-10-06T17:47:58.090Z,14.04
2022-10-06T17:51:00.580Z,14.03
2022-10-06T17:54:05.185Z,14.12
2022-10-06T17:57:07.348Z,14.05
2022-10-06T18:00:10.070Z,13.90
2022-10-06T18:03:14.955Z,13.96
2022-10-06T18:06:17.858Z,13.88
2022-10-06T18:09:20.855Z,13.94
2022-10-06T18:12:23.053Z,13.97
2022-10-06T18:15:25.185Z,13.95
2022-10-06T18:18:27.316Z,13.70
2022-10-06T18:21:35.294Z,13.51
2022-10-06T18:24:38.034Z,13.57
2022-10-06T18:27:40.593Z,13.53
2022-10-06T18:30:49.691Z,13.45
2022-10-06T18:37:14.625Z,13.38
2022-10-06T18:40:16.855Z,13.46
2022-10-06T18:43:19.007Z,13.39
2022-10-06T18:46:40.230Z,13.34
2022-10-06T18:49:42.527Z,13.22
2022-10-06T18:52:44.699Z,13.17
2022-10-06T18:55:46.828Z,13.18
2022-10-06T18:58:49.107Z,13.33
2022-10-06T19:01:51.458Z,13.24
2022-10-06T19:04:53.817Z,13.23
2022-10-06T19:07:56.452Z,13.23
2022-10-06T19:11:21.686Z,13.07
2022-10-06T19:14:29.622Z,13.14
2022-10-06T19:17:32.271Z,13.06
2022-10-06T19:20:34.456Z,13.04
2022-10-06T19:23:38.024Z,12.82
2022-10-06T19:26:45.657Z,12.66
2022-10-06T19:29:53.077Z,12.74
2022-10-06T19:32:55.270Z,12.60
2022-10-06T19:35:59.187Z,12.66
2022-10-06T19:39:06.578Z,12.60
2022-10-06T19:42:32.627Z,12.68
2022-10-06T19:45:34.775Z,12.81
2022-10-06T19:48:37.429Z,12.95
2022-10-06T19:51:42.310Z,12.52
2022-10-06T19:54:44.545Z,12.39
2022-10-06T19:57:47.145Z,12.40
2022-10-06T20:00:49.371Z,12.45
2022-10-06T20:03:51.570Z,12.50
2022-10-06T20:06:53.945Z,12.55
2022-10-06T20:09:56.184Z,12.52
2022-10-06T20:12:58.704Z,12.64
2022-10-06T20:16:02.050Z,12.50
2022-10-06T20:19:05.460Z,12.41
2022-10-06T20:22:07.658Z,12.38
2022-10-06T20:25:10.378Z,12.51
2022-10-06T20:28:13.354Z,12.66
2022-10-06T20:31:26.588Z,13.16
2022-10-06T20:34:31.933Z,12.79
2022-10-06T20:37:34.459Z,12.48
2022-10-06T20:40:49.179Z,12.42
2022-10-06T20:43:53.981Z,12.53
2022-10-06T20:46:56.181Z,12.61
2022-10-06T20:49:58.389Z,12.87
2022-10-06T20:53:00.569Z,12.86
2022-10-06T20:56:05.288Z,12.52
2022-10-06T20:59:07.754Z,12.47
2022-10-06T21:02:11.032Z,12.49
2022-10-06T21:05:13.184Z,12.43
2022-10-06T21:08:15.468Z,12.27
2022-10-06T21:11:20.249Z,12.23
2022-10-06T21:14:22.713Z,12.17
2022-10-06T21:17:24.902Z,12.13
2022-10-06T21:20:27.056Z,12.03
2022-10-06T21:23:30.087Z,12.05
2022-10-06T21:26:33.625Z,12.09
2022-10-06T21:29:36.330Z,11.92
2022-10-06T21:32:38.476Z,11.73
2022-10-06T21:35:40.635Z,11.82
2022-10-06T21:38:50.103Z,11.62
2022-10-06T21:41:52.255Z,11.54
2022-10-06T21:44:54.540Z,11.53
2022-10-06T21:47:56.956Z,11.41
2022-10-06T21:50:59.102Z,11.41
2022-10-06T21:54:01.810Z,11.40
2022-10-06T21:57:04.193Z,11.54
2022-10-06T22:00:10.991Z,11.42
2022-10-06T22:03:13.247Z,11.40
2022-10-06T22:06:19.348Z,11.38
2022-10-06T22:09:22.132Z,11.29
2022-10-06T22:12:24.272Z,11.36
2022-10-06T22:15:26.414Z,11.56
2022-10-06T22:18:28.754Z,11.55
2022-10-06T22:21:35.917Z,11.50
2022-10-06T22:24:38.053Z,11.57
2022-10-06T22:27:40.207Z,11.51
2022-10-06T22:30:42.354Z,11.52
2022-10-06T22:33:45.132Z,11.56
2022-10-06T22:36:47.348Z,11.64
2022-10-06T22:39:49.498Z,11.74
2022-10-06T22:42:51.628Z,11.77
2022-10-06T22:45:54.014Z,11.78
2022-10-06T22:48:56.569Z,11.71
2022-10-06T22:51:58.730Z,11.66
2022-10-06T22:55:00.869Z,11.69
2022-10-06T22:58:03.069Z,11.65
2022-10-06T23:01:10.734Z,11.63
2022-10-06T23:04:12.951Z,11.45
2022-10-06T23:07:15.063Z,11.31
2022-10-06T23:10:18.676Z,11.19
2022-10-06T23:13:21.474Z,11.09
2022-10-06T23:16:23.846Z,11.18
2022-10-06T23:19:26.072Z,11.27
2022-10-06T23:22:28.216Z,11.23
2022-10-06T23:25:30.384Z,11.21
2022-10-06T23:28:33.101Z,11.16
2022-10-06T23:31:35.354Z,11.17
2022-10-06T23:34:37.529Z,11.02
2022-10-06T23:37:39.707Z,10.96
2022-10-06T23:40:41.896Z,10.86
2022-10-06T23:43:44.152Z,10.99
2022-10-06T23:46:46.301Z,11.06
2022-10-06T23:49:48.527Z,10.99
2022-10-06T23:52:50.710Z,10.90
2022-10-06T23:55:53.106Z,10.96
2022-10-06T23:58:55.308Z,10.97
